»·PEaware :: N416JK KSBA-KBVU

N416JK :: KSBA-KBVU

FLIGHT INFORMATION

Flight Status: Arrived
Operator: Privately registered:
United States
More flights under this callsign
Pilot: John K. (4202)
Aircraft: Unknown
(EPIC)
More flights by this aircraft type
Origin: KSBA Santa Barbara Mun
United States
Destination: KBVU Boulder City
United States
More flights between these airports :: More routes between these airports
Route: +HENER V186 FIM PMD HEC V21 BLD
File this flight plan on PilotEdge
Remarks:
Altitude:
(Current/Filed)
12,000ft
Speed:
(Current/Filed)
280kts
Departed: 01-Feb-19 09:02 AM
Arrived: 01-Feb-19 10:03 AM
Distance/Time
Traveled:
261nm/1:01
Distance/Time
To Go:
Arrived

Flight Plot

Page will automatically refresh every two minutes.

Flight plan parsing failed; only flown route is shown


Map Options




Map Legend


Flown Route
Filed Route
Departure Airport
Arrival Airport
Navaid (VOR, NDB)
Fix

Horizontal Profiles

Position Reports

Time Latitude Longitude Heading Altitude Ground
Speed
01-Feb-19 08:43 34.432437 -119.835542 70 17ft 0kts
01-Feb-19 08:44 34.432437 -119.835542 70 17ft 0kts
01-Feb-19 08:45 34.432437 -119.835542 70 17ft 0kts
01-Feb-19 08:46 34.432437 -119.835542 70 17ft 0kts
01-Feb-19 08:47 34.432437 -119.835542 70 17ft 0kts
01-Feb-19 08:48 34.432437 -119.835542 70 17ft 0kts
01-Feb-19 08:49 34.432437 -119.835542 70 17ft 0kts
01-Feb-19 08:50 34.432437 -119.835542 70 17ft 0kts
01-Feb-19 08:51 34.432437 -119.835542 70 17ft 0kts
01-Feb-19 08:52 34.432437 -119.835542 70 17ft 0kts
01-Feb-19 08:53 34.432437 -119.835542 70 17ft 0kts
01-Feb-19 08:54 34.432437 -119.835542 70 17ft 0kts
01-Feb-19 08:55 34.432437 -119.835542 70 17ft 0kts
01-Feb-19 08:56 34.432437 -119.835542 70 17ft 0kts
01-Feb-19 08:57 34.432437 -119.835542 70 17ft 0kts
01-Feb-19 08:58 34.431750 -119.836229 251 17ft 20kts
01-Feb-19 08:59 34.430774 -119.839554 247 17ft 0kts
01-Feb-19 09:00 34.430309 -119.840280 169 17ft 23kts
01-Feb-19 09:01 34.400178 -119.816478 129 1473ft 194kts
01-Feb-19 09:02 34.342559 -119.786252 162 2862ft 255kts
01-Feb-19 09:03 34.273054 -119.758193 162 4020ft 245kts
01-Feb-19 09:04 34.218249 -119.724508 108 5666ft 225kts
01-Feb-19 09:05 34.230793 -119.655279 72 7331ft 213kts
01-Feb-19 09:06 34.246554 -119.588703 72 8996ft 206kts
01-Feb-19 09:07 34.261959 -119.523508 73 10670ft 211kts
01-Feb-19 09:08 34.278664 -119.452446 74 12396ft 240kts
01-Feb-19 09:09 34.297871 -119.370353 74 14098ft 268kts
01-Feb-19 09:10 34.318731 -119.281008 74 14975ft 301kts
01-Feb-19 09:11 34.335076 -119.178234 86 14976ft 329kts
01-Feb-19 09:12 34.342718 -119.070950 85 14975ft 340kts
01-Feb-19 09:13 34.350794 -118.961348 86 14974ft 334kts
01-Feb-19 09:14 34.354399 -118.911856 87 14974ft 328kts
01-Feb-19 09:15 34.376622 -118.823480 70 14974ft 322kts
01-Feb-19 09:16 34.407813 -118.731325 70 14975ft 315kts
01-Feb-19 09:17 34.436402 -118.646672 70 14984ft 313kts
01-Feb-19 09:18 34.468217 -118.552264 70 14991ft 313kts
01-Feb-19 09:19 34.500718 -118.455464 70 14996ft 313kts
01-Feb-19 09:20 34.532994 -118.359126 70 15003ft 313kts
01-Feb-19 09:21 34.564844 -118.263829 70 15014ft 313kts
01-Feb-19 09:22 34.596819 -118.167875 70 15020ft 313kts
01-Feb-19 09:23 34.629342 -118.069673 72 15013ft 312kts
01-Feb-19 09:24 34.641620 -117.968914 84 15015ft 309kts
01-Feb-19 09:25 34.652861 -117.867562 84 15013ft 311kts
01-Feb-19 09:26 34.664094 -117.765715 84 15013ft 312kts
01-Feb-19 09:27 34.675224 -117.661122 84 15015ft 312kts
01-Feb-19 09:28 34.686153 -117.558218 84 15017ft 312kts
01-Feb-19 09:30 34.696931 -117.455544 85 15017ft 312kts
01-Feb-19 09:31 34.707604 -117.352897 84 15017ft 312kts
01-Feb-19 09:32 34.718279 -117.249939 84 15017ft 312kts
01-Feb-19 09:33 34.728940 -117.146448 84 15017ft 312kts
01-Feb-19 09:34 34.739401 -117.043727 85 15019ft 312kts
01-Feb-19 09:35 34.749723 -116.940829 86 15023ft 311kts
01-Feb-19 09:36 34.760140 -116.838956 87 15026ft 311kts
01-Feb-19 09:37 34.770314 -116.737211 87 15012ft 311kts
01-Feb-19 09:38 34.780631 -116.632609 87 14998ft 311kts
01-Feb-19 09:39 34.790590 -116.530666 87 14998ft 311kts
01-Feb-19 09:40 34.819596 -116.434207 51 14367ft 337kts
01-Feb-19 09:41 34.881248 -116.353003 50 13458ft 330kts
01-Feb-19 09:42 34.942714 -116.272461 49 11912ft 322kts
01-Feb-19 09:43 35.000737 -116.196294 48 10922ft 305kts
01-Feb-19 09:44 35.044647 -116.138674 49 10992ft 297kts
01-Feb-19 09:45 35.100438 -116.065171 49 10990ft 303kts
01-Feb-19 09:46 35.156791 -115.990790 49 10990ft 305kts
01-Feb-19 09:47 35.214387 -115.914601 49 10990ft 305kts
01-Feb-19 09:48 35.270963 -115.840152 49 11000ft 312kts
01-Feb-19 09:48 35.319213 -115.776052 50 11007ft 316kts
01-Feb-19 09:50 35.386860 -115.685665 49 11017ft 319kts
01-Feb-19 09:51 35.441251 -115.613047 49 11004ft 320kts
01-Feb-19 09:52 35.498742 -115.536148 49 10267ft 305kts
01-Feb-19 09:52 35.542675 -115.477040 49 10023ft 297kts
01-Feb-19 09:53 35.598622 -115.401821 49 10017ft 314kts
01-Feb-19 09:55 35.665475 -115.311844 49 10017ft 315kts
01-Feb-19 09:56 35.724210 -115.232473 49 10017ft 313kts
01-Feb-19 09:56 35.771274 -115.168802 49 10016ft 312kts
01-Feb-19 09:57 35.827425 -115.092367 52 8555ft 294kts
01-Feb-19 09:58 35.855359 -115.004414 71 7032ft 263kts
01-Feb-19 09:59 35.885079 -114.933532 41 5472ft 250kts
01-Feb-19 10:00 35.933178 -114.897742 7 4093ft 173kts
01-Feb-19 10:01 35.947360 -114.868096 101 2206ft 86kts
01-Feb-19 10:02 35.948138 -114.860803 344 2205ft 15kts
01-Feb-19 10:03 35.949325 -114.860482 205 2205ft 0kts
01-Feb-19 10:04 35.949325 -114.860482 205 2205ft 0kts

Navigation Log

Ident Type
Flight plan parsing failed, navigation log unavailable